North West River, Canada
Current Conditions -  °F | °C
As of 1:00 PM on Wednesday 26 Nov 2014 (Local Time) from CYYR Reporting Station
Broken Clouds Broken Clouds  
Wind Chill: 15°   Ceiling: 4700
Heat Index: 27°   Visibility: 15mi
Dew Point: 12°   Wind: 14mph
Humidity: 55%   Direction: 290°WNW
Pressure: 29.92"   Gusts: NA
Location:  53.53°N, 60.15°W
Report Text: CYYR 261700Z 29012KT 15SM FEW035 BKN047 M03/M11 A2992 RMK SC2SC3 SLP135
Loading
Personal Weather Stations






























Interactive Weather Map New forecast layout! Learn more

10-Day Weather Forecast

Advertisements
Track Severe Weather on mobile